Terminal Aerodrome Forecast
Issued by NWS Austin/San Antonio, TX

Home | Current Version | Previous Version | Text Only | Print | Product List | Glossary On
Versions: 1 2 3 4 5 6 7 8 9 10 11 12 13 14 15 16 17 18 19 20
000
FTUS44 KEWX 301130
TAFDRT
TAF
KDRT 301130Z 3012/3112 04008KT P6SM VCSH OVC011
     FM301400 VRB03KT P6SM VCSH SCT035 SCT250
     FM310100 02005KT P6SM VCSH BKN035=

USA.gov is the U.S. government's official web portal to all federal, state and local government web resources and services.